Time;durP1;ratioP1;P1;durP2;ratioP2;P2;SDS_P1;SDS_P2;PMS_P1;PMS_P2;Temp;Humidity;BMP_temperature;BMP_pressure;BME280_temperature;BME280_humidity;BME280_pressure;Samples;Min_cycle;Max_cycle;Signal;HPM_P1;HPM_P2
2021/12/19 00:01:47;;;;;;;15.30;14.70;;;18.60;96.00;;;;;;5034008;28;20792;-48
2021/12/19 00:04:23;;;;;;;15.80;15.10;;;18.60;96.00;;;;;;5034291;28;20455;-48
2021/12/19 00:09:34;;;;;;;16.87;16.07;;;18.60;96.10;;;;;;5034207;28;20917;-49
2021/12/19 00:12:01;;;;;;;16.20;15.50;;;18.50;96.00;;;;;;5033801;28;20456;-51
2021/12/19 00:14:28;;;;;;;16.50;15.70;;;18.60;96.10;;;;;;5014296;28;20782;-48
2021/12/19 00:16:55;;;;;;;16.63;15.73;;;18.60;96.00;;;;;;5029593;28;20563;-49
2021/12/19 00:19:23;;;;;;;16.13;15.53;;;18.60;96.00;;;;;;5033949;28;20465;-49
2021/12/19 00:21:50;;;;;;;17.00;16.30;;;18.50;96.40;;;;;;5033742;28;20452;-48
2021/12/19 00:24:17;;;;;;;17.13;16.33;;;18.50;96.00;;;;;;5033640;28;20457;-49
2021/12/19 00:26:44;;;;;;;16.30;15.57;;;18.50;95.90;;;;;;5033919;28;20448;-50
2021/12/19 00:29:11;;;;;;;17.03;15.93;;;18.50;96.10;;;;;;5033878;28;20806;-53
2021/12/19 00:31:38;;;;;;;14.97;14.37;;;18.50;96.20;;;;;;5033770;28;20472;-49
2021/12/19 00:34:05;;;;;;;15.87;15.17;;;18.50;96.20;;;;;;5033814;28;21187;-50
2021/12/19 00:36:33;;;;;;;15.50;14.90;;;18.50;96.20;;;;;;5033376;28;20504;-49
2021/12/19 00:39:00;;;;;;;14.80;14.20;;;18.50;96.10;;;;;;5033517;28;20480;-48
2021/12/19 00:41:27;;;;;;;15.53;14.83;;;18.40;96.30;;;;;;5033316;28;20939;-51
2021/12/19 00:43:56;;;;;;;15.60;15.00;;;18.40;96.20;;;;;;5033484;28;20811;-50
2021/12/19 00:46:24;;;;;;;14.33;13.70;;;18.40;96.30;;;;;;5033536;28;20854;-49
2021/12/19 00:48:53;;;;;;;15.30;14.60;;;18.40;96.30;;;;;;5032919;28;20847;-48
2021/12/19 00:51:23;;;;;;;15.50;14.87;;;18.40;96.40;;;;;;5033376;28;20449;-51
2021/12/19 00:53:53;;;;;;;15.80;15.20;;;18.40;96.50;;;;;;5032652;28;20450;-53
2021/12/19 00:56:19;;;;;;;15.47;14.73;;;18.40;96.50;;;;;;5033127;28;20477;-49
2021/12/19 00:58:46;;;;;;;16.20;15.40;;;18.40;96.60;;;;;;5033176;28;20465;-49
2021/12/19 01:01:14;;;;;;;15.23;14.63;;;18.40;96.60;;;;;;5033119;28;20503;-49
2021/12/19 01:03:43;;;;;;;15.70;15.00;;;18.30;96.70;;;;;;5032900;28;20457;-50
2021/12/19 01:06:10;;;;;;;15.30;14.67;;;18.30;96.80;;;;;;5032921;28;20448;-50
2021/12/19 01:08:37;;;;;;;15.10;14.40;;;18.30;96.80;;;;;;5032957;28;20473;-50
2021/12/19 01:11:06;;;;;;;15.40;14.70;;;18.30;96.70;;;;;;5033022;28;20759;-49
2021/12/19 01:13:32;;;;;;;15.03;14.43;;;18.30;96.60;;;;;;5032973;28;20472;-52
2021/12/19 01:16:01;;;;;;;15.03;14.43;;;18.30;96.80;;;;;;5032898;28;20492;-49
2021/12/19 01:18:27;;;;;;;15.90;15.20;;;18.20;96.90;;;;;;5032626;28;20986;-50
2021/12/19 01:20:55;;;;;;;15.50;14.80;;;18.20;96.90;;;;;;5032559;28;20445;-49
2021/12/19 01:23:22;;;;;;;15.67;15.07;;;18.20;97.00;;;;;;5032610;28;20445;-49
2021/12/19 01:25:49;;;;;;;14.97;14.47;;;18.20;97.20;;;;;;5032550;28;20441;-50
2021/12/19 01:28:17;;;;;;;14.50;13.90;;;18.20;97.20;;;;;;5032624;28;20974;-50
2021/12/19 01:30:44;;;;;;;14.97;14.37;;;18.20;97.30;;;;;;5032804;28;20455;-49
2021/12/19 01:33:11;;;;;;;15.47;14.87;;;18.20;97.30;;;;;;5032507;28;20453;-50
2021/12/19 01:35:37;;;;;;;15.70;14.77;;;18.10;97.40;;;;;;5032358;28;20460;-49
2021/12/19 01:38:04;;;;;;;15.73;15.10;;;18.10;97.40;;;;;;5032229;28;20560;-49
2021/12/19 01:40:31;;;;;;;15.60;15.00;;;18.10;97.50;;;;;;5032394;28;20890;-50
2021/12/19 01:42:58;;;;;;;14.67;14.10;;;18.10;97.50;;;;;;5032149;28;20953;-49
2021/12/19 01:45:29;;;;;;;14.50;13.90;;;18.10;97.60;;;;;;5032291;28;20932;-50
2021/12/19 01:47:57;;;;;;;15.57;14.97;;;18.10;97.70;;;;;;5031709;28;20465;-49
2021/12/19 01:50:24;;;;;;;15.77;15.13;;;18.10;97.70;;;;;;5032239;28;20452;-49
2021/12/19 01:52:51;;;;;;;16.13;15.43;;;18.10;97.80;;;;;;5032052;28;20441;-49
2021/12/19 01:55:18;;;;;;;15.10;14.50;;;18.10;97.80;;;;;;5032214;28;20453;-52
2021/12/19 01:57:45;;;;;;;14.83;14.20;;;18.10;97.80;;;;;;5031996;28;20493;-49
2021/12/19 02:00:21;;;;;;;15.60;15.00;;;18.00;97.80;;;;;;5031909;28;20808;-50
2021/12/19 02:02:49;;;;;;;14.50;14.00;;;18.10;97.90;;;;;;5031836;28;20472;-52
2021/12/19 02:05:16;;;;;;;14.50;14.00;;;18.00;97.90;;;;;;5031030;28;20457;-52
2021/12/19 02:07:46;;;;;;;15.03;14.43;;;18.00;97.90;;;;;;5031921;28;20542;-50
2021/12/19 02:10:14;;;;;;;15.30;14.70;;;18.00;97.90;;;;;;5031964;28;20981;-49
2021/12/19 02:12:41;;;;;;;15.40;14.90;;;18.00;97.90;;;;;;5031299;28;20452;-49
2021/12/19 02:15:09;;;;;;;15.27;14.67;;;18.00;98.00;;;;;;5031774;28;20456;-51
2021/12/19 02:17:36;;;;;;;16.17;15.47;;;18.00;98.10;;;;;;5031882;28;20575;-49
2021/12/19 02:20:10;;;;;;;15.13;14.60;;;18.00;98.30;;;;;;5031891;28;20452;-49
2021/12/19 02:22:36;;;;;;;15.23;14.63;;;18.00;98.20;;;;;;5031662;28;20445;-50
2021/12/19 02:25:05;;;;;;;15.97;15.27;;;18.00;98.20;;;;;;5031379;28;20441;-50
2021/12/19 02:27:32;;;;;;;16.03;15.23;;;18.00;98.20;;;;;;5031596;28;20452;-49
2021/12/19 02:29:59;;;;;;;17.77;16.83;;;18.00;98.20;;;;;;5031656;28;20449;-50
2021/12/19 02:32:28;;;;;;;15.37;14.77;;;17.90;98.20;;;;;;5031485;28;20457;-49
2021/12/19 02:34:58;;;;;;;15.03;14.53;;;18.00;98.30;;;;;;5031302;28;20453;-49
2021/12/19 02:37:54;;;;;;;16.10;15.40;;;17.90;98.30;;;;;;5031387;28;20503;-50
2021/12/19 02:40:34;;;;;;;14.87;14.37;;;18.00;98.20;;;;;;5062833;22;20485;-52
2021/12/19 02:48:32;;;;;;;16.37;15.70;;;17.90;98.50;;;;;;5034558;28;20452;-51
2021/12/19 02:50:59;;;;;;;14.70;14.20;;;17.90;98.60;;;;;;5031485;28;20445;-49
2021/12/19 02:53:32;;;;;;;15.90;15.20;;;17.90;98.40;;;;;;5031221;28;20448;-50
2021/12/19 02:55:59;;;;;;;16.53;15.73;;;17.80;98.50;;;;;;5031465;28;20930;-51
2021/12/19 02:58:26;;;;;;;16.77;16.00;;;17.90;98.50;;;;;;5031254;28;20488;-51
2021/12/19 03:00:53;;;;;;;15.73;15.13;;;17.80;98.50;;;;;;5031042;28;20961;-55
2021/12/19 03:03:20;;;;;;;15.60;14.90;;;17.80;98.50;;;;;;5030925;28;20460;-53
2021/12/19 03:05:47;;;;;;;14.50;14.00;;;17.80;98.40;;;;;;5031326;28;20444;-51
2021/12/19 03:08:14;;;;;;;16.20;15.50;;;17.80;98.80;;;;;;5031179;28;20457;-54
2021/12/19 03:13:36;;;;;;;15.30;14.70;;;17.80;98.60;;;;;;4980791;28;20484;-52
2021/12/19 03:18:53;;;;;;;14.50;14.00;;;17.80;98.40;;;;;;4994948;28;20454;-51
2021/12/19 03:21:24;;;;;;;15.00;14.50;;;17.80;98.70;;;;;;5015422;28;20814;-53
2021/12/19 03:23:50;;;;;;;14.60;14.10;;;17.80;98.60;;;;;;5023185;28;20536;-52
2021/12/19 03:26:18;;;;;;;15.27;14.67;;;17.70;98.60;;;;;;5034872;28;20899;-50
2021/12/19 03:28:46;;;;;;;15.07;14.47;;;17.80;98.70;;;;;;5034831;28;20461;-51
2021/12/19 03:31:14;;;;;;;14.73;14.20;;;17.80;98.60;;;;;;5034950;28;20448;-52
2021/12/19 03:33:41;;;;;;;15.23;14.63;;;17.70;98.60;;;;;;5034591;28;20445;-55
2021/12/19 03:36:08;;;;;;;15.83;15.13;;;17.70;98.70;;;;;;5034438;28;20445;-52
2021/12/19 03:38:40;;;;;;;15.40;14.70;;;17.80;98.60;;;;;;5034527;28;20913;-54
2021/12/19 03:41:15;;;;;;;15.73;15.03;;;17.70;98.50;;;;;;5034654;28;20883;-50
2021/12/19 03:43:43;;;;;;;15.50;14.90;;;17.80;98.40;;;;;;5034524;28;20502;-53
2021/12/19 03:46:09;;;;;;;14.83;14.13;;;17.70;98.60;;;;;;5034003;28;20445;-55
2021/12/19 03:48:36;;;;;;;15.40;14.80;;;17.70;98.70;;;;;;5034164;28;20464;-50
2021/12/19 03:51:03;;;;;;;15.23;14.63;;;17.60;98.70;;;;;;5034482;28;20830;-51
2021/12/19 03:53:30;;;;;;;14.93;14.43;;;17.70;98.60;;;;;;5034232;28;20452;-52
2021/12/19 03:55:56;;;;;;;14.63;14.13;;;17.70;98.50;;;;;;5034458;28;20975;-51
2021/12/19 03:58:23;;;;;;;15.70;15.10;;;17.70;98.60;;;;;;5034035;28;20484;-51
2021/12/19 04:00:53;;;;;;;15.57;14.90;;;17.70;98.60;;;;;;5034298;28;20930;-56
2021/12/19 04:03:21;;;;;;;13.83;13.30;;;17.70;98.30;;;;;;5034108;28;20542;-53
2021/12/19 04:05:50;;;;;;;16.37;15.67;;;17.70;98.50;;;;;;5034246;28;21002;-53
2021/12/19 04:08:18;;;;;;;14.53;14.03;;;17.60;98.60;;;;;;5034056;28;20465;-51
2021/12/19 04:10:46;;;;;;;14.03;13.53;;;17.60;98.50;;;;;;5033910;28;20449;-50
2021/12/19 04:13:13;;;;;;;16.30;15.50;;;17.60;98.60;;;;;;5034039;28;20515;-53
2021/12/19 04:15:39;;;;;;;15.43;14.77;;;17.60;98.40;;;;;;5033790;28;20449;-50
2021/12/19 04:18:07;;;;;;;15.70;15.00;;;17.60;98.40;;;;;;5033921;28;20485;-52
2021/12/19 04:20:34;;;;;;;15.17;14.57;;;17.60;98.30;;;;;;5033961;28;20445;-50
2021/12/19 04:23:01;;;;;;;14.97;14.37;;;17.60;98.20;;;;;;5033499;28;20934;-53
2021/12/19 04:25:27;;;;;;;14.90;14.40;;;17.60;98.50;;;;;;5033854;28;20472;-54
2021/12/19 04:27:54;;;;;;;15.03;14.50;;;17.60;98.50;;;;;;5033550;28;20448;-51
2021/12/19 04:30:23;;;;;;;15.20;14.70;;;17.60;98.50;;;;;;5033445;28;20452;-50
2021/12/19 04:32:58;;;;;;;15.57;14.90;;;17.60;98.60;;;;;;5033565;28;20799;-56
2021/12/19 04:35:31;;;;;;;14.60;14.10;;;17.60;98.70;;;;;;5033525;28;20832;-51
2021/12/19 04:40:51;;;;;;;15.20;14.60;;;17.60;98.90;;;;;;5033794;28;20425;-53
2021/12/19 04:51:58;;;;;;;14.37;13.87;;;17.60;98.80;;;;;;5033268;28;20479;-51
2021/12/19 04:54:34;;;;;;;15.33;14.40;;;17.60;98.80;;;;;;5033327;28;20855;-50
2021/12/19 04:57:10;;;;;;;14.20;13.70;;;17.60;98.90;;;;;;5033300;28;20445;-50
2021/12/19 05:02:29;;;;;;;13.90;13.50;;;17.60;98.80;;;;;;5029273;28;20532;-50
2021/12/19 05:16:14;;;;;;;14.60;14.00;;;17.60;99.10;;;;;;5033081;28;20973;-52
2021/12/19 05:18:43;;;;;;;14.60;14.10;;;17.60;99.10;;;;;;5032684;28;20499;-50
2021/12/19 05:21:15;;;;;;;14.93;14.43;;;17.60;99.00;;;;;;5032415;28;20460;-53
2021/12/19 05:24:18;;;;;;;14.83;14.33;;;17.60;99.10;;;;;;5032628;28;20445;-53
2021/12/19 05:26:45;;;;;;;15.43;14.93;;;17.60;99.10;;;;;;5032759;28;20953;-54
2021/12/19 05:29:12;;;;;;;15.07;14.43;;;17.60;99.00;;;;;;5032519;28;20460;-53
2021/12/19 05:31:39;;;;;;;15.23;14.63;;;17.50;99.00;;;;;;5032248;28;20448;-52
2021/12/19 05:34:06;;;;;;;15.30;14.80;;;17.60;99.00;;;;;;5032470;28;20526;-50
2021/12/19 05:47:31;;;;;;;16.00;15.33;;;17.50;99.20;;;;;;5032541;28;20425;-52
2021/12/19 05:49:58;;;;;;;14.87;14.37;;;17.40;99.30;;;;;;5032293;28;20468;-51
2021/12/19 05:52:26;;;;;;;14.60;14.10;;;18.10;99.90;;;;;;5032023;28;20932;-50
2021/12/19 05:54:54;;;;;;;14.93;14.43;;;19.00;97.80;;;;;;5032217;28;20824;-50
2021/12/19 05:57:21;;;;;;;14.63;14.20;;;19.60;95.10;;;;;;5031808;28;20484;-53
2021/12/19 05:59:48;;;;;;;15.30;14.80;;;19.90;93.20;;;;;;5032121;28;20921;-50
2021/12/19 06:02:14;;;;;;;14.83;14.33;;;20.10;92.00;;;;;;5032019;28;20453;-55
2021/12/19 06:04:41;;;;;;;15.00;14.30;;;20.20;91.20;;;;;;5032092;28;20466;-51
2021/12/19 06:07:08;;;;;;;14.63;14.03;;;20.30;90.60;;;;;;5031829;28;20456;-52
2021/12/19 06:09:34;;;;;;;15.77;15.27;;;20.50;89.60;;;;;;5031822;28;20472;-51
2021/12/19 06:12:03;;;;;;;14.80;14.20;;;20.50;88.40;;;;;;5031780;28;20441;-54
2021/12/19 06:14:33;;;;;;;15.33;14.63;;;20.50;87.20;;;;;;5031939;28;20810;-52
2021/12/19 06:16:59;;;;;;;15.17;14.67;;;20.60;86.80;;;;;;5032126;28;20467;-50
2021/12/19 06:19:26;;;;;;;15.10;14.60;;;20.50;86.00;;;;;;5031332;28;20491;-53
2021/12/19 06:21:53;;;;;;;15.20;14.70;;;20.50;85.60;;;;;;5031217;28;20449;-52
2021/12/19 06:24:20;;;;;;;15.30;14.80;;;20.50;85.30;;;;;;5031765;28;20946;-53
2021/12/19 06:26:47;;;;;;;15.20;14.70;;;20.50;85.10;;;;;;5031685;28;20477;-52
2021/12/19 06:29:15;;;;;;;16.00;15.40;;;20.50;84.90;;;;;;5031750;28;20473;-54
2021/12/19 06:31:41;;;;;;;16.10;15.43;;;20.50;84.20;;;;;;5031176;28;20449;-53
2021/12/19 06:34:08;;;;;;;15.13;14.63;;;20.50;84.30;;;;;;5031627;28;20444;-50
2021/12/19 06:36:36;;;;;;;15.33;14.73;;;20.50;84.00;;;;;;5031541;28;20457;-53
2021/12/19 06:39:04;;;;;;;14.53;14.03;;;20.50;83.60;;;;;;5031263;28;20838;-52
2021/12/19 06:41:31;;;;;;;15.90;15.30;;;20.50;83.20;;;;;;5031502;28;20456;-50
2021/12/19 06:43:57;;;;;;;15.33;14.73;;;20.50;82.60;;;;;;5031150;28;20441;-52
2021/12/19 06:46:25;;;;;;;15.80;15.20;;;20.40;82.60;;;;;;5031597;28;20441;-54
2021/12/19 06:48:52;;;;;;;14.77;14.27;;;20.50;82.20;;;;;;5031537;28;20469;-51
2021/12/19 06:51:19;;;;;;;15.37;14.77;;;20.40;81.90;;;;;;5031602;28;20452;-53
2021/12/19 06:53:45;;;;;;;15.67;15.07;;;20.40;81.70;;;;;;5035317;28;20448;-51
2021/12/19 06:56:12;;;;;;;14.93;14.43;;;20.40;81.80;;;;;;5035395;28;20892;-56
2021/12/19 06:58:39;;;;;;;15.87;15.27;;;20.30;82.00;;;;;;5035396;28;21005;-53
2021/12/19 07:01:06;;;;;;;16.30;15.70;;;20.30;81.30;;;;;;5035482;28;20862;-51
2021/12/19 07:03:34;;;;;;;15.37;14.77;;;20.30;81.60;;;;;;5035187;28;20441;-52
2021/12/19 07:06:01;;;;;;;14.60;14.20;;;20.20;81.40;;;;;;5035529;28;20445;-53
2021/12/19 07:08:28;;;;;;;14.90;14.40;;;20.10;81.60;;;;;;5034906;28;20997;-55
2021/12/19 07:10:55;;;;;;;14.70;14.20;;;20.10;81.80;;;;;;5035151;28;20460;-54
2021/12/19 07:13:22;;;;;;;14.93;14.43;;;20.20;81.50;;;;;;5035119;28;20453;-55
2021/12/19 07:15:49;;;;;;;15.87;15.27;;;20.10;81.40;;;;;;5035183;28;20452;-55
2021/12/19 07:18:16;;;;;;;17.33;16.63;;;20.10;81.60;;;;;;5034994;28;20853;-56
2021/12/19 07:20:44;;;;;;;14.70;14.20;;;20.10;81.40;;;;;;5034936;28;20448;-55
2021/12/19 07:23:12;;;;;;;15.20;14.60;;;20.10;81.20;;;;;;5034839;28;20806;-50
2021/12/19 07:25:39;;;;;;;10.47;10.17;;;20.10;81.30;;;;;;5034895;28;20448;-51
2021/12/19 07:28:06;;;;;;;9.63;9.43;;;20.10;81.30;;;;;;5034895;28;20441;-52
2021/12/19 07:30:35;;;;;;;9.83;9.53;;;20.00;81.30;;;;;;5034771;28;20591;-50
2021/12/19 07:33:02;;;;;;;9.37;9.07;;;20.00;82.20;;;;;;5034822;28;20467;-52
2021/12/19 07:35:30;;;;;;;9.53;9.23;;;19.90;82.80;;;;;;5034817;28;20816;-51
2021/12/19 07:37:58;;;;;;;10.53;9.93;;;19.80;84.00;;;;;;5034439;28;20484;-50
2021/12/19 07:40:28;;;;;;;9.27;8.97;;;19.70;85.30;;;;;;5034633;28;20440;-50
2021/12/19 07:42:58;;;;;;;10.17;9.77;;;19.60;86.30;;;;;;5034548;28;20445;-48
2021/12/19 07:45:25;;;;;;;10.40;10.10;;;19.60;86.70;;;;;;5034476;28;20535;-49
2021/12/19 07:47:51;;;;;;;9.85;9.45;;;19.60;87.40;;;;;;5034240;28;20445;-50
2021/12/19 07:50:19;;;;;;;9.43;9.03;;;19.60;88.70;;;;;;5034152;28;20898;-56
2021/12/19 07:52:45;;;;;;;8.73;8.50;;;19.50;89.10;;;;;;5033253;28;20870;-52
2021/12/19 07:55:14;;;;;;;10.90;10.50;;;19.60;89.80;;;;;;5034585;28;20905;-52
2021/12/19 07:57:41;;;;;;;9.70;9.40;;;19.60;89.60;;;;;;5033690;28;20441;-50
2021/12/19 08:00:10;;;;;;;10.50;10.20;;;19.60;89.50;;;;;;5034094;28;20448;-50
2021/12/19 08:02:37;;;;;;;10.00;9.70;;;19.60;90.10;;;;;;5033885;28;20379;-49
2021/12/19 08:05:05;;;;;;;9.20;8.90;;;19.50;90.30;;;;;;5032760;28;20442;-51
2021/12/19 08:07:33;;;;;;;9.20;9.00;;;19.50;90.60;;;;;;5033182;28;20441;-50
2021/12/19 08:10:12;;;;;;;11.10;10.70;;;19.50;90.70;;;;;;5034145;28;20215;-53
2021/12/19 08:12:40;;;;;;;9.70;9.50;;;19.50;90.60;;;;;;5033964;28;20536;-55
2021/12/19 08:15:08;;;;;;;10.47;10.17;;;19.50;91.10;;;;;;5034038;28;20531;-53
2021/12/19 08:17:35;;;;;;;11.03;10.73;;;19.40;91.20;;;;;;5034042;28;20457;-51
2021/12/19 08:20:05;;;;;;;10.18;9.88;;;19.40;91.30;;;;;;5033304;28;20460;-49
2021/12/19 08:22:33;;;;;;;9.30;9.00;;;19.40;91.90;;;;;;5032316;28;20445;-54
2021/12/19 08:25:00;;;;;;;8.50;8.30;;;19.40;92.20;;;;;;5033211;28;20441;-50
2021/12/19 08:27:27;;;;;;;9.90;9.60;;;19.40;92.00;;;;;;5033924;28;20245;-55
2021/12/19 08:29:56;;;;;;;10.50;10.20;;;19.40;91.80;;;;;;5033559;28;20461;-52
2021/12/19 08:32:22;;;;;;;11.43;11.10;;;19.30;91.90;;;;;;5013981;28;20446;-54
2021/12/19 08:34:49;;;;;;;9.00;8.60;;;19.30;92.30;;;;;;5013214;28;20441;-58
2021/12/19 08:37:16;;;;;;;8.60;8.30;;;19.30;92.80;;;;;;5013322;28;20446;-54
2021/12/19 08:39:43;;;;;;;11.13;10.73;;;19.40;93.00;;;;;;5054418;22;20240;-52
2021/12/19 08:42:10;;;;;;;9.60;9.30;;;19.30;92.70;;;;;;5039505;28;20453;-49
2021/12/19 08:44:37;;;;;;;10.27;9.97;;;19.30;93.40;;;;;;5033630;28;20663;-50
2021/12/19 08:47:06;;;;;;;9.27;9.07;;;19.40;93.30;;;;;;5013842;28;20445;-49
2021/12/19 08:49:32;;;;;;;9.60;9.30;;;19.30;93.30;;;;;;5013529;28;20473;-57
2021/12/19 08:51:59;;;;;;;10.40;10.00;;;19.30;93.20;;;;;;5013404;28;20914;-49
2021/12/19 08:54:26;;;;;;;10.23;9.93;;;19.30;93.40;;;;;;5031754;28;20448;-49
2021/12/19 08:56:53;;;;;;;9.53;9.23;;;19.20;93.70;;;;;;5033407;28;20541;-49
2021/12/19 08:59:20;;;;;;;9.47;9.07;;;19.20;93.60;;;;;;5033099;28;20492;-50
2021/12/19 09:01:48;;;;;;;9.70;9.40;;;19.10;93.60;;;;;;5033105;28;20453;-51
2021/12/19 09:04:16;;;;;;;9.00;8.60;;;19.10;93.50;;;;;;5032947;28;20783;-50
2021/12/19 09:06:43;;;;;;;8.00;7.80;;;19.10;93.40;;;;;;5033179;28;20453;-49
2021/12/19 09:09:09;;;;;;;10.20;9.90;;;19.00;93.40;;;;;;5032874;28;20469;-49
2021/12/19 09:11:36;;;;;;;10.30;10.00;;;18.90;93.50;;;;;;5033046;28;20449;-49
2021/12/19 09:14:04;;;;;;;10.80;10.50;;;18.90;93.40;;;;;;5032895;28;20453;-49
2021/12/19 09:16:30;;;;;;;10.70;10.20;;;18.80;93.50;;;;;;5032796;28;20965;-49
2021/12/19 09:18:57;;;;;;;9.90;9.50;;;18.80;93.40;;;;;;5032692;28;21148;-49
2021/12/19 09:21:25;;;;;;;9.93;9.63;;;18.80;93.40;;;;;;5032718;28;20961;-49
2021/12/19 09:23:52;;;;;;;10.83;10.43;;;18.70;93.40;;;;;;5032655;28;20804;-50
2021/12/19 09:26:18;;;;;;;10.30;10.00;;;18.70;93.40;;;;;;5032718;28;20453;-50
2021/12/19 09:28:45;;;;;;;10.00;9.70;;;18.60;93.50;;;;;;5032611;28;20473;-48
2021/12/19 09:31:12;;;;;;;9.20;9.00;;;18.60;93.50;;;;;;5032496;28;20457;-49
2021/12/19 09:33:38;;;;;;;9.50;9.10;;;18.60;93.50;;;;;;5032465;28;20849;-49
2021/12/19 09:36:05;;;;;;;9.33;9.07;;;18.60;93.40;;;;;;5032482;28;20840;-49
2021/12/19 09:38:35;;;;;;;9.53;9.33;;;18.60;93.30;;;;;;5032198;28;20493;-49
2021/12/19 09:41:12;;;;;;;9.70;9.40;;;18.60;93.30;;;;;;5032479;28;20800;-51
2021/12/19 09:43:45;;;;;;;10.50;10.00;;;18.60;93.20;;;;;;5032181;28;20448;-51
2021/12/19 09:46:16;;;;;;;9.40;9.10;;;18.60;93.10;;;;;;5032408;28;20445;-49
2021/12/19 09:48:45;;;;;;;9.67;9.47;;;18.60;93.00;;;;;;5032232;28;20472;-49
2021/12/19 09:51:13;;;;;;;10.07;9.77;;;18.60;92.90;;;;;;5032310;28;20445;-49
2021/12/19 09:53:42;;;;;;;10.90;10.50;;;18.50;92.70;;;;;;5031972;28;20453;-48
2021/12/19 09:56:09;;;;;;;10.47;10.07;;;18.50;92.70;;;;;;5032083;28;20456;-49
2021/12/19 09:58:37;;;;;;;9.07;8.87;;;18.40;92.80;;;;;;5031945;28;20481;-48
2021/12/19 10:01:07;;;;;;;10.73;10.37;;;18.40;93.00;;;;;;5032090;28;20452;-48
2021/12/19 10:03:35;;;;;;;8.90;8.70;;;18.40;92.80;;;;;;5031821;28;20445;-48
2021/12/19 10:06:15;;;;;;;9.57;9.27;;;18.40;92.80;;;;;;5031980;28;20873;-49
2021/12/19 10:08:44;;;;;;;9.17;8.97;;;18.40;92.80;;;;;;5031821;28;21057;-48
2021/12/19 10:11:31;;;;;;;8.70;8.40;;;18.40;92.90;;;;;;5031836;28;20452;-52
2021/12/19 10:13:58;;;;;;;9.60;9.30;;;18.40;92.60;;;;;;5031952;28;20532;-48
2021/12/19 10:16:30;;;;;;;8.27;8.07;;;18.40;92.50;;;;;;5031788;28;20445;-50
2021/12/19 10:18:59;;;;;;;9.00;8.80;;;18.50;92.30;;;;;;5031620;28;20495;-49
2021/12/19 10:21:27;;;;;;;7.93;7.77;;;18.60;92.10;;;;;;5031797;28;20445;-49
2021/12/19 10:23:59;;;;;;;9.33;9.03;;;18.60;91.80;;;;;;5031696;28;20919;-48
2021/12/19 10:26:39;;;;;;;9.23;9.03;;;18.60;91.50;;;;;;5031239;28;20452;-52
2021/12/19 10:29:06;;;;;;;9.40;9.20;;;18.70;91.40;;;;;;5031647;28;20465;-49
2021/12/19 10:31:32;;;;;;;9.43;9.23;;;18.70;91.30;;;;;;5031406;28;20456;-49
2021/12/19 10:33:59;;;;;;;8.90;8.70;;;18.60;91.10;;;;;;5031483;28;20467;-50
2021/12/19 10:36:28;;;;;;;9.13;8.93;;;18.60;91.10;;;;;;5031590;28;20448;-50
2021/12/19 10:38:56;;;;;;;9.53;9.27;;;18.60;91.20;;;;;;5031136;28;20579;-49
2021/12/19 10:41:32;;;;;;;10.00;9.70;;;18.50;91.30;;;;;;5031550;28;20942;-49
2021/12/19 10:44:04;;;;;;;9.03;8.83;;;18.50;91.50;;;;;;5031472;28;20449;-49
2021/12/19 10:46:34;;;;;;;8.73;8.53;;;18.50;91.40;;;;;;5031338;28;20449;-49
2021/12/19 10:49:02;;;;;;;8.70;8.50;;;18.40;91.20;;;;;;5031438;28;20465;-48
2021/12/19 10:51:30;;;;;;;8.00;7.80;;;18.40;91.40;;;;;;5031227;28;20862;-50
2021/12/19 10:54:00;;;;;;;8.80;8.60;;;18.40;91.40;;;;;;5031236;28;20453;-48
2021/12/19 10:56:30;;;;;;;9.30;9.10;;;18.40;91.40;;;;;;5031408;28;20445;-49
2021/12/19 10:58:59;;;;;;;9.20;9.00;;;18.40;91.30;;;;;;5031247;28;20906;-50
2021/12/19 11:01:29;;;;;;;9.20;9.00;;;18.40;91.30;;;;;;5031408;28;20456;-48
2021/12/19 11:04:02;;;;;;;8.77;8.57;;;18.40;91.30;;;;;;5031251;28;20507;-49
2021/12/19 11:06:32;;;;;;;8.87;8.67;;;18.40;91.30;;;;;;5031256;28;20813;-48
2021/12/19 11:09:04;;;;;;;9.90;9.70;;;18.40;91.30;;;;;;5031554;28;20781;-48
2021/12/19 11:11:51;;;;;;;8.93;8.73;;;18.40;91.20;;;;;;5031037;28;20446;-48
2021/12/19 11:14:24;;;;;;;8.83;8.63;;;18.40;91.20;;;;;;5030288;28;20502;-49
2021/12/19 11:16:54;;;;;;;8.80;8.60;;;18.30;91.10;;;;;;5031009;28;20448;-49
2021/12/19 11:19:21;;;;;;;8.67;8.47;;;18.30;91.10;;;;;;5031031;28;20571;-49
2021/12/19 11:21:48;;;;;;;8.87;8.67;;;18.30;91.00;;;;;;5030988;28;20449;-49
2021/12/19 11:24:19;;;;;;;9.13;8.93;;;18.30;91.00;;;;;;5030910;28;20845;-49
2021/12/19 11:26:47;;;;;;;9.30;9.10;;;18.30;90.80;;;;;;5031208;28;20445;-48
2021/12/19 11:29:15;;;;;;;9.00;8.80;;;18.30;90.90;;;;;;5030948;28;20822;-49
2021/12/19 11:31:46;;;;;;;8.77;8.57;;;18.30;90.80;;;;;;5030887;28;20811;-48
2021/12/19 11:34:21;;;;;;;8.03;7.83;;;18.30;90.90;;;;;;5031030;28;20506;-48
2021/12/19 11:36:55;;;;;;;9.30;9.10;;;18.20;90.80;;;;;;5031009;28;20456;-48
2021/12/19 11:39:27;;;;;;;9.13;8.93;;;18.30;90.80;;;;;;5034132;28;20485;-49
2021/12/19 11:42:06;;;;;;;9.33;9.13;;;18.20;90.80;;;;;;5034752;28;20441;-53
2021/12/19 11:44:36;;;;;;;9.43;9.23;;;18.20;90.80;;;;;;5034611;28;20448;-53
2021/12/19 11:47:09;;;;;;;9.30;9.10;;;18.20;90.80;;;;;;5034842;28;20440;-56
2021/12/19 11:49:36;;;;;;;8.30;8.10;;;18.20;90.80;;;;;;5034476;28;20903;-53
2021/12/19 11:52:36;;;;;;;9.53;9.23;;;18.00;91.00;;;;;;5034236;28;20957;-53
2021/12/19 11:55:33;;;;;;;8.80;8.60;;;18.00;91.30;;;;;;4973397;28;20467;-54
2021/12/19 11:58:24;;;;;;;8.30;8.10;;;18.00;91.50;;;;;;5033864;28;20799;-49
2021/12/19 12:01:13;;;;;;;9.30;9.10;;;18.00;91.40;;;;;;5034286;28;20507;-51
2021/12/19 12:03:48;;;;;;;8.90;8.70;;;17.90;91.50;;;;;;5034040;28;20448;-52
2021/12/19 12:06:39;;;;;;;8.70;8.50;;;17.80;91.80;;;;;;5034318;28;20448;-49
2021/12/19 12:09:20;;;;;;;8.60;8.40;;;17.90;91.90;;;;;;5034110;28;20457;-49
2021/12/19 12:12:10;;;;;;;8.23;8.03;;;17.90;91.80;;;;;;5034015;28;20540;-49
2021/12/19 12:14:41;;;;;;;8.30;8.10;;;17.90;91.70;;;;;;5034066;28;20441;-49
2021/12/19 12:17:10;;;;;;;9.33;9.13;;;18.10;91.50;;;;;;5034052;28;20815;-49
2021/12/19 12:19:40;;;;;;;9.00;8.80;;;18.20;91.10;;;;;;5033777;28;20844;-51
2021/12/19 12:22:29;;;;;;;8.40;8.20;;;18.20;91.00;;;;;;5033686;28;20445;-49
2021/12/19 12:25:10;;;;;;;8.50;8.30;;;18.20;90.90;;;;;;5033873;28;20544;-49
2021/12/19 12:27:40;;;;;;;9.33;9.13;;;18.30;90.70;;;;;;5034053;28;20859;-49
2021/12/19 12:30:09;;;;;;;8.90;8.70;;;18.30;90.50;;;;;;5033715;28;20461;-48
2021/12/19 12:32:36;;;;;;;9.00;8.80;;;18.30;90.40;;;;;;5032940;28;20457;-51
2021/12/19 12:35:04;;;;;;;8.20;8.10;;;18.30;90.40;;;;;;5033233;28;20456;-48
2021/12/19 12:37:32;;;;;;;8.80;8.60;;;18.30;90.50;;;;;;5033717;28;20467;-49
2021/12/19 12:40:16;;;;;;;11.20;10.13;;;18.20;92.30;;;;;;5033230;28;20488;-49
2021/12/19 12:43:05;;;;;;;11.37;10.30;;;18.30;99.90;;;;;;5033104;28;20449;-48
2021/12/19 12:45:49;;;;;;;12.07;10.93;;;18.40;99.90;;;;;;5033568;28;20493;-50
2021/12/19 12:48:30;;;;;;;9.87;9.23;;;18.40;99.90;;;;;;5033467;28;20449;-48
2021/12/19 12:50:57;;;;;;;10.00;9.33;;;18.40;99.90;;;;;;5032748;28;20440;-49
2021/12/19 12:53:32;;;;;;;10.60;9.60;;;18.40;99.90;;;;;;5032982;28;20934;-48
2021/12/19 12:56:06;;;;;;;10.30;9.53;;;18.40;99.90;;;;;;5033398;28;20578;-48
2021/12/19 12:58:38;;;;;;;9.40;8.90;;;18.40;99.90;;;;;;5032912;28;20477;-48
2021/12/19 13:01:21;;;;;;;9.30;8.80;;;18.40;99.90;;;;;;5033063;28;20500;-48
2021/12/19 13:04:16;;;;;;;9.73;8.87;;;18.40;99.90;;;;;;5032764;28;20461;-49
2021/12/19 13:06:46;;;;;;;10.03;9.23;;;18.40;99.90;;;;;;5000386;28;20446;-47
2021/12/19 13:09:17;;;;;;;9.80;8.90;;;18.30;99.90;;;;;;5026328;28;20468;-48
2021/12/19 13:11:44;;;;;;;8.60;7.87;;;18.30;99.90;;;;;;5033007;28;20856;-48
2021/12/19 13:14:23;;;;;;;7.70;7.40;;;18.20;99.90;;;;;;5032873;28;20866;-47
2021/12/19 13:16:52;;;;;;;9.97;9.13;;;18.20;99.90;;;;;;5032926;28;20444;-49
2021/12/19 13:19:50;;;;;;;10.73;10.17;;;18.20;99.90;;;;;;5032370;28;20461;-47
2021/12/19 13:22:20;;;;;;;10.13;9.70;;;18.20;99.90;;;;;;5032727;28;20480;-47
2021/12/19 13:24:48;;;;;;;9.97;9.37;;;18.20;99.90;;;;;;5032799;28;20461;-47
2021/12/19 13:27:17;;;;;;;10.23;9.63;;;18.20;99.90;;;;;;5032618;28;20455;-49
2021/12/19 13:30:04;;;;;;;10.83;10.20;;;18.10;99.90;;;;;;5032867;28;20469;-48
2021/12/19 13:32:33;;;;;;;9.80;9.40;;;18.20;99.90;;;;;;5032372;28;20441;-48
2021/12/19 13:35:02;;;;;;;10.43;10.03;;;18.20;99.90;;;;;;5032540;28;20857;-47
2021/12/19 13:37:33;;;;;;;10.03;9.77;;;18.20;99.90;;;;;;5032604;28;20448;-47